Pechora, Russia
Current Conditions -  °F | °C
As of 2:00 PM on Saturday 25 Oct 2014 (Local Time) from UUYY Reporting Station
Snow Showers Snow Showers  
Wind Chill: 15°   Ceiling: 1800
Heat Index: 21°   Visibility: 4mi
Dew Point: 14°   Wind: 4mph
Humidity: 74%   Direction: 320°NW
Pressure: 30.42"   Gusts: 11mph
Location:  65.15°N, 57.21°E
Report Text: UUYY 251100Z 32002G05MPS 300V360 7000 -SHSN BKN018CB OVC066M06/M10 Q1030 TEMPO 1000 SHSN 0182//49 RMK QFE763/1017
Loading
Personal Weather Stations






























Interactive Weather Map
Tropical Storm Tracking
New forecast layout! Learn more

10-Day Weather Forecast

Advertisements
Track Severe Weather on mobile